sensor_id;sensor_type;location;lat;lon;timestamp;temperature;humidity
64855;DHT22;51321;50.428;8.378;2022-08-23T00:00:00;21.60;65.60
64855;DHT22;51321;50.428;8.378;2022-08-23T00:02:29;21.50;65.90
64855;DHT22;51321;50.428;8.378;2022-08-23T00:04:51;21.50;65.90
64855;DHT22;51321;50.428;8.378;2022-08-23T00:07:15;21.50;66.30
64855;DHT22;51321;50.428;8.378;2022-08-23T00:09:37;21.50;66.20
64855;DHT22;51321;50.428;8.378;2022-08-23T00:12:06;21.50;66.20
64855;DHT22;51321;50.428;8.378;2022-08-23T00:14:31;21.40;66.30
64855;DHT22;51321;50.428;8.378;2022-08-23T00:16:54;21.30;66.50
64855;DHT22;51321;50.428;8.378;2022-08-23T00:19:18;21.30;66.50
64855;DHT22;51321;50.428;8.378;2022-08-23T00:21:41;21.30;66.50
64855;DHT22;51321;50.428;8.378;2022-08-23T00:24:04;21.30;67.00
64855;DHT22;51321;50.428;8.378;2022-08-23T00:26:47;21.30;66.60
64855;DHT22;51321;50.428;8.378;2022-08-23T00:29:09;21.30;66.80
64855;DHT22;51321;50.428;8.378;2022-08-23T00:31:31;21.20;67.00
64855;DHT22;51321;50.428;8.378;2022-08-23T00:33:53;21.20;67.00
64855;DHT22;51321;50.428;8.378;2022-08-23T00:36:16;21.20;67.10
64855;DHT22;51321;50.428;8.378;2022-08-23T00:38:38;21.10;67.30
64855;DHT22;51321;50.428;8.378;2022-08-23T00:41:01;21.10;67.40
64855;DHT22;51321;50.428;8.378;2022-08-23T00:43:28;21.10;67.40
64855;DHT22;51321;50.428;8.378;2022-08-23T00:46:14;21.10;67.50
64855;DHT22;51321;50.428;8.378;2022-08-23T00:49:01;21.00;68.00
64855;DHT22;51321;50.428;8.378;2022-08-23T00:51:31;21.00;67.50
64855;DHT22;51321;50.428;8.378;2022-08-23T00:53:58;21.00;67.80
64855;DHT22;51321;50.428;8.378;2022-08-23T00:56:23;20.90;69.40
64855;DHT22;51321;50.428;8.378;2022-08-23T00:58:45;20.80;68.20
64855;DHT22;51321;50.428;8.378;2022-08-23T01:01:07;20.90;68.70
64855;DHT22;51321;50.428;8.378;2022-08-23T01:03:32;20.80;69.50
64855;DHT22;51321;50.428;8.378;2022-08-23T01:06:07;20.60;69.50
64855;DHT22;51321;50.428;8.378;2022-08-23T01:08:33;20.50;70.30
64855;DHT22;51321;50.428;8.378;2022-08-23T01:10:58;20.40;70.20
64855;DHT22;51321;50.428;8.378;2022-08-23T01:13:24;20.40;70.20
64855;DHT22;51321;50.428;8.378;2022-08-23T01:15:49;20.30;70.80
64855;DHT22;51321;50.428;8.378;2022-08-23T01:18:15;20.20;71.00
64855;DHT22;51321;50.428;8.378;2022-08-23T01:20:46;20.20;71.00
64855;DHT22;51321;50.428;8.378;2022-08-23T01:23:25;20.10;71.70
64855;DHT22;51321;50.428;8.378;2022-08-23T01:25:48;20.20;71.20
64855;DHT22;51321;50.428;8.378;2022-08-23T01:28:10;20.00;71.60
64855;DHT22;51321;50.428;8.378;2022-08-23T01:30:33;20.00;72.00
64855;DHT22;51321;50.428;8.378;2022-08-23T01:32:57;19.80;72.60
64855;DHT22;51321;50.428;8.378;2022-08-23T01:35:23;19.90;71.90
64855;DHT22;51321;50.428;8.378;2022-08-23T01:37:53;19.80;72.70
64855;DHT22;51321;50.428;8.378;2022-08-23T01:40:16;19.60;72.80
64855;DHT22;51321;50.428;8.378;2022-08-23T01:42:38;19.50;73.60
64855;DHT22;51321;50.428;8.378;2022-08-23T01:45:01;19.40;74.40
64855;DHT22;51321;50.428;8.378;2022-08-23T01:47:24;19.30;74.30
64855;DHT22;51321;50.428;8.378;2022-08-23T01:49:47;19.20;75.00
64855;DHT22;51321;50.428;8.378;2022-08-23T01:52:09;19.10;75.10
64855;DHT22;51321;50.428;8.378;2022-08-23T01:54:31;19.10;75.00
64855;DHT22;51321;50.428;8.378;2022-08-23T01:56:55;19.00;76.20
64855;DHT22;51321;50.428;8.378;2022-08-23T01:59:17;18.90;76.10
64855;DHT22;51321;50.428;8.378;2022-08-23T02:01:42;18.80;75.70
64855;DHT22;51321;50.428;8.378;2022-08-23T02:04:04;18.70;75.90
64855;DHT22;51321;50.428;8.378;2022-08-23T02:06:27;18.70;76.00
64855;DHT22;51321;50.428;8.378;2022-08-23T02:08:48;18.60;77.00
64855;DHT22;51321;50.428;8.378;2022-08-23T02:11:27;18.60;76.80
64855;DHT22;51321;50.428;8.378;2022-08-23T02:13:53;18.60;77.00
64855;DHT22;51321;50.428;8.378;2022-08-23T02:16:22;18.50;77.40
64855;DHT22;51321;50.428;8.378;2022-08-23T02:18:44;18.40;77.70
64855;DHT22;51321;50.428;8.378;2022-08-23T02:21:08;18.40;78.40
64855;DHT22;51321;50.428;8.378;2022-08-23T02:23:30;18.30;78.40
64855;DHT22;51321;50.428;8.378;2022-08-23T02:25:53;18.20;78.50
64855;DHT22;51321;50.428;8.378;2022-08-23T02:28:15;18.30;79.00
64855;DHT22;51321;50.428;8.378;2022-08-23T02:30:39;18.30;79.80
64855;DHT22;51321;50.428;8.378;2022-08-23T02:33:03;18.20;79.50
64855;DHT22;51321;50.428;8.378;2022-08-23T02:35:25;18.10;78.90
64855;DHT22;51321;50.428;8.378;2022-08-23T02:37:48;18.10;79.10
64855;DHT22;51321;50.428;8.378;2022-08-23T02:40:10;18.10;80.20
64855;DHT22;51321;50.428;8.378;2022-08-23T02:42:32;18.00;79.90
64855;DHT22;51321;50.428;8.378;2022-08-23T02:44:54;17.90;80.30
64855;DHT22;51321;50.428;8.378;2022-08-23T02:47:18;17.90;80.50
64855;DHT22;51321;50.428;8.378;2022-08-23T02:49:52;17.90;80.70
64855;DHT22;51321;50.428;8.378;2022-08-23T02:52:14;17.80;80.30
64855;DHT22;51321;50.428;8.378;2022-08-23T02:54:37;17.80;80.30
64855;DHT22;51321;50.428;8.378;2022-08-23T02:56:59;17.80;80.80
64855;DHT22;51321;50.428;8.378;2022-08-23T02:59:20;17.80;81.50
64855;DHT22;51321;50.428;8.378;2022-08-23T03:01:42;17.80;82.40
64855;DHT22;51321;50.428;8.378;2022-08-23T03:04:23;17.70;81.90
64855;DHT22;51321;50.428;8.378;2022-08-23T03:06:45;17.70;82.20
64855;DHT22;51321;50.428;8.378;2022-08-23T03:09:07;17.70;82.50
64855;DHT22;51321;50.428;8.378;2022-08-23T03:11:31;17.60;82.50
64855;DHT22;51321;50.428;8.378;2022-08-23T03:13:53;17.50;82.90
64855;DHT22;51321;50.428;8.378;2022-08-23T03:16:17;17.50;82.90
64855;DHT22;51321;50.428;8.378;2022-08-23T03:18:41;17.40;83.30
64855;DHT22;51321;50.428;8.378;2022-08-23T03:21:07;17.40;83.50
64855;DHT22;51321;50.428;8.378;2022-08-23T03:23:29;17.40;83.80
64855;DHT22;51321;50.428;8.378;2022-08-23T03:25:52;17.40;84.20
64855;DHT22;51321;50.428;8.378;2022-08-23T03:28:19;17.30;84.20
64855;DHT22;51321;50.428;8.378;2022-08-23T03:30:40;17.20;84.70
64855;DHT22;51321;50.428;8.378;2022-08-23T03:33:03;17.20;85.10
64855;DHT22;51321;50.428;8.378;2022-08-23T03:35:26;17.10;85.20
64855;DHT22;51321;50.428;8.378;2022-08-23T03:37:49;17.00;86.10
64855;DHT22;51321;50.428;8.378;2022-08-23T03:40:13;17.00;85.80
64855;DHT22;51321;50.428;8.378;2022-08-23T03:42:35;16.90;86.50
64855;DHT22;51321;50.428;8.378;2022-08-23T03:44:57;16.90;86.50
64855;DHT22;51321;50.428;8.378;2022-08-23T03:47:19;16.90;86.80
64855;DHT22;51321;50.428;8.378;2022-08-23T03:49:41;16.80;87.00
64855;DHT22;51321;50.428;8.378;2022-08-23T03:52:04;16.80;86.70
64855;DHT22;51321;50.428;8.378;2022-08-23T03:54:28;16.80;86.80
64855;DHT22;51321;50.428;8.378;2022-08-23T03:56:52;16.70;87.00
64855;DHT22;51321;50.428;8.378;2022-08-23T03:59:14;16.60;87.10
64855;DHT22;51321;50.428;8.378;2022-08-23T04:01:36;16.60;87.40
64855;DHT22;51321;50.428;8.378;2022-08-23T04:03:58;16.60;87.70
64855;DHT22;51321;50.428;8.378;2022-08-23T04:06:21;16.60;87.80
64855;DHT22;51321;50.428;8.378;2022-08-23T04:08:44;16.60;88.40
64855;DHT22;51321;50.428;8.378;2022-08-23T04:11:08;16.50;88.40
64855;DHT22;51321;50.428;8.378;2022-08-23T04:13:32;16.60;89.10
64855;DHT22;51321;50.428;8.378;2022-08-23T04:15:56;16.30;89.80
64855;DHT22;51321;50.428;8.378;2022-08-23T04:18:18;16.30;90.00
64855;DHT22;51321;50.428;8.378;2022-08-23T04:20:41;16.30;90.50
64855;DHT22;51321;50.428;8.378;2022-08-23T04:23:03;16.30;90.20
64855;DHT22;51321;50.428;8.378;2022-08-23T04:25:31;16.20;89.80
64855;DHT22;51321;50.428;8.378;2022-08-23T04:27:54;16.10;90.10
64855;DHT22;51321;50.428;8.378;2022-08-23T04:30:17;16.10;90.30
64855;DHT22;51321;50.428;8.378;2022-08-23T04:32:41;16.00;90.90
64855;DHT22;51321;50.428;8.378;2022-08-23T04:35:04;16.00;91.30
64855;DHT22;51321;50.428;8.378;2022-08-23T04:37:26;15.90;91.40
64855;DHT22;51321;50.428;8.378;2022-08-23T04:39:48;15.80;91.60
64855;DHT22;51321;50.428;8.378;2022-08-23T04:42:34;15.90;91.60
64855;DHT22;51321;50.428;8.378;2022-08-23T04:44:58;15.90;91.60
64855;DHT22;51321;50.428;8.378;2022-08-23T04:47:20;15.90;91.50
64855;DHT22;51321;50.428;8.378;2022-08-23T04:49:45;15.90;91.70
64855;DHT22;51321;50.428;8.378;2022-08-23T04:52:07;15.90;91.70
64855;DHT22;51321;50.428;8.378;2022-08-23T04:54:29;15.90;91.90
64855;DHT22;51321;50.428;8.378;2022-08-23T04:57:11;15.90;91.70
64855;DHT22;51321;50.428;8.378;2022-08-23T04:59:35;15.90;92.00
64855;DHT22;51321;50.428;8.378;2022-08-23T05:01:58;15.60;92.50
64855;DHT22;51321;50.428;8.378;2022-08-23T05:04:20;15.60;92.90
64855;DHT22;51321;50.428;8.378;2022-08-23T05:06:42;15.70;92.90
64855;DHT22;51321;50.428;8.378;2022-08-23T05:09:05;15.60;92.90
64855;DHT22;51321;50.428;8.378;2022-08-23T05:11:29;15.80;92.80
64855;DHT22;51321;50.428;8.378;2022-08-23T05:13:50;15.80;93.00
64855;DHT22;51321;50.428;8.378;2022-08-23T05:16:14;15.60;93.40
64855;DHT22;51321;50.428;8.378;2022-08-23T05:18:46;15.40;93.80
64855;DHT22;51321;50.428;8.378;2022-08-23T05:21:13;15.70;93.60
64855;DHT22;51321;50.428;8.378;2022-08-23T05:23:35;15.70;93.50
64855;DHT22;51321;50.428;8.378;2022-08-23T05:26:01;15.60;93.90
64855;DHT22;51321;50.428;8.378;2022-08-23T05:28:31;15.70;93.90
64855;DHT22;51321;50.428;8.378;2022-08-23T05:30:56;15.80;93.70
64855;DHT22;51321;50.428;8.378;2022-08-23T05:33:19;15.90;93.60
64855;DHT22;51321;50.428;8.378;2022-08-23T05:35:42;15.90;93.80
64855;DHT22;51321;50.428;8.378;2022-08-23T05:38:05;16.00;93.70
64855;DHT22;51321;50.428;8.378;2022-08-23T05:40:26;16.00;93.80
64855;DHT22;51321;50.428;8.378;2022-08-23T05:42:58;16.00;94.00
64855;DHT22;51321;50.428;8.378;2022-08-23T05:45:20;16.00;93.90
64855;DHT22;51321;50.428;8.378;2022-08-23T05:47:42;16.10;93.90
64855;DHT22;51321;50.428;8.378;2022-08-23T05:50:16;16.20;93.80
64855;DHT22;51321;50.428;8.378;2022-08-23T05:52:39;16.20;94.00
64855;DHT22;51321;50.428;8.378;2022-08-23T05:55:01;16.40;93.80
64855;DHT22;51321;50.428;8.378;2022-08-23T05:57:48;16.40;93.70
64855;DHT22;51321;50.428;8.378;2022-08-23T06:00:10;16.60;93.30
64855;DHT22;51321;50.428;8.378;2022-08-23T06:02:40;16.80;93.20
64855;DHT22;51321;50.428;8.378;2022-08-23T06:05:03;17.00;92.90
64855;DHT22;51321;50.428;8.378;2022-08-23T06:07:25;17.00;92.70
64855;DHT22;51321;50.428;8.378;2022-08-23T06:09:48;17.00;92.90
64855;DHT22;51321;50.428;8.378;2022-08-23T06:12:10;17.30;92.50
64855;DHT22;51321;50.428;8.378;2022-08-23T06:14:32;17.40;92.30
64855;DHT22;51321;50.428;8.378;2022-08-23T06:16:54;17.50;92.20
64855;DHT22;51321;50.428;8.378;2022-08-23T06:19:18;17.70;91.90
64855;DHT22;51321;50.428;8.378;2022-08-23T06:21:43;17.70;91.90
64855;DHT22;51321;50.428;8.378;2022-08-23T06:24:04;18.00;91.90
64855;DHT22;51321;50.428;8.378;2022-08-23T06:26:32;18.10;91.10
64855;DHT22;51321;50.428;8.378;2022-08-23T06:28:58;18.30;91.00
64855;DHT22;51321;50.428;8.378;2022-08-23T06:31:21;18.30;91.00
64855;DHT22;51321;50.428;8.378;2022-08-23T06:34:01;18.30;90.80
64855;DHT22;51321;50.428;8.378;2022-08-23T06:36:47;18.50;90.70
64855;DHT22;51321;50.428;8.378;2022-08-23T06:39:30;18.60;90.50
64855;DHT22;51321;50.428;8.378;2022-08-23T06:42:14;18.70;90.40
64855;DHT22;51321;50.428;8.378;2022-08-23T06:44:39;19.00;90.20
64855;DHT22;51321;50.428;8.378;2022-08-23T06:47:11;19.00;90.00
64855;DHT22;51321;50.428;8.378;2022-08-23T06:49:33;18.90;90.10
64855;DHT22;51321;50.428;8.378;2022-08-23T06:51:56;19.00;90.10
64855;DHT22;51321;50.428;8.378;2022-08-23T06:54:38;19.10;89.90
64855;DHT22;51321;50.428;8.378;2022-08-23T06:57:23;19.50;90.00
64855;DHT22;51321;50.428;8.378;2022-08-23T07:00:06;19.70;88.60
64855;DHT22;51321;50.428;8.378;2022-08-23T07:02:49;20.10;87.90
64855;DHT22;51321;50.428;8.378;2022-08-23T07:05:40;20.20;86.90
64855;DHT22;51321;50.428;8.378;2022-08-23T07:08:11;20.40;86.60
64855;DHT22;51321;50.428;8.378;2022-08-23T07:10:33;20.60;85.60
64855;DHT22;51321;50.428;8.378;2022-08-23T07:12:57;20.60;85.50
64855;DHT22;51321;50.428;8.378;2022-08-23T07:15:18;20.80;84.30
64855;DHT22;51321;50.428;8.378;2022-08-23T07:17:40;21.00;83.30
64855;DHT22;51321;50.428;8.378;2022-08-23T07:20:03;21.20;83.30
64855;DHT22;51321;50.428;8.378;2022-08-23T07:22:28;21.20;82.70
64855;DHT22;51321;50.428;8.378;2022-08-23T07:24:50;21.40;82.20
64855;DHT22;51321;50.428;8.378;2022-08-23T07:27:14;21.50;80.60
64855;DHT22;51321;50.428;8.378;2022-08-23T07:29:45;21.70;80.70
64855;DHT22;51321;50.428;8.378;2022-08-23T07:32:08;21.80;80.20
64855;DHT22;51321;50.428;8.378;2022-08-23T07:34:31;21.90;79.60
64855;DHT22;51321;50.428;8.378;2022-08-23T07:36:53;22.00;79.70
64855;DHT22;51321;50.428;8.378;2022-08-23T07:39:16;22.00;79.20
64855;DHT22;51321;50.428;8.378;2022-08-23T07:41:39;22.10;78.90
64855;DHT22;51321;50.428;8.378;2022-08-23T07:44:03;22.20;78.20
64855;DHT22;51321;50.428;8.378;2022-08-23T07:46:27;22.40;78.30
64855;DHT22;51321;50.428;8.378;2022-08-23T07:48:49;22.60;77.40
64855;DHT22;51321;50.428;8.378;2022-08-23T07:51:15;22.80;76.60
64855;DHT22;51321;50.428;8.378;2022-08-23T07:53:38;22.80;75.80
64855;DHT22;51321;50.428;8.378;2022-08-23T07:56:03;22.80;75.00
64855;DHT22;51321;50.428;8.378;2022-08-23T07:58:36;22.90;75.20
64855;DHT22;51321;50.428;8.378;2022-08-23T08:01:22;23.20;75.70
64855;DHT22;51321;50.428;8.378;2022-08-23T08:03:47;23.40;73.60
64855;DHT22;51321;50.428;8.378;2022-08-23T08:06:21;23.40;73.20
64855;DHT22;51321;50.428;8.378;2022-08-23T08:08:44;23.30;73.10
64855;DHT22;51321;50.428;8.378;2022-08-23T08:11:08;23.30;73.10
64855;DHT22;51321;50.428;8.378;2022-08-23T08:13:31;23.40;72.60
64855;DHT22;51321;50.428;8.378;2022-08-23T08:15:53;23.50;72.70
64855;DHT22;51321;50.428;8.378;2022-08-23T08:18:18;23.70;72.30
64855;DHT22;51321;50.428;8.378;2022-08-23T08:21:12;23.70;71.70
64855;DHT22;51321;50.428;8.378;2022-08-23T08:23:53;23.90;70.50
64855;DHT22;51321;50.428;8.378;2022-08-23T08:26:39;24.00;70.80
64855;DHT22;51321;50.428;8.378;2022-08-23T08:29:01;24.30;69.70
64855;DHT22;51321;50.428;8.378;2022-08-23T08:31:24;24.50;69.40
64855;DHT22;51321;50.428;8.378;2022-08-23T08:33:47;24.60;69.20
64855;DHT22;51321;50.428;8.378;2022-08-23T08:36:30;24.70;68.00
64855;DHT22;51321;50.428;8.378;2022-08-23T08:38:53;24.70;68.80
64855;DHT22;51321;50.428;8.378;2022-08-23T08:41:18;24.80;68.00
64855;DHT22;51321;50.428;8.378;2022-08-23T08:43:52;24.90;68.60
64855;DHT22;51321;50.428;8.378;2022-08-23T08:46:22;25.00;67.10
64855;DHT22;51321;50.428;8.378;2022-08-23T08:48:47;24.90;68.20
64855;DHT22;51321;50.428;8.378;2022-08-23T08:51:19;25.00;67.40
64855;DHT22;51321;50.428;8.378;2022-08-23T08:53:48;24.90;67.00
64855;DHT22;51321;50.428;8.378;2022-08-23T08:56:22;25.20;67.50
64855;DHT22;51321;50.428;8.378;2022-08-23T08:58:59;25.30;65.90
64855;DHT22;51321;50.428;8.378;2022-08-23T09:01:24;25.20;66.00
64855;DHT22;51321;50.428;8.378;2022-08-23T09:03:47;25.20;66.20
64855;DHT22;51321;50.428;8.378;2022-08-23T09:06:22;25.20;66.30
64855;DHT22;51321;50.428;8.378;2022-08-23T09:09:11;25.10;66.60
64855;DHT22;51321;50.428;8.378;2022-08-23T09:11:43;25.50;65.70
64855;DHT22;51321;50.428;8.378;2022-08-23T09:14:35;25.20;66.50
64855;DHT22;51321;50.428;8.378;2022-08-23T09:17:03;25.50;66.10
64855;DHT22;51321;50.428;8.378;2022-08-23T09:19:26;25.70;65.70
64855;DHT22;51321;50.428;8.378;2022-08-23T09:21:55;25.60;65.20
64855;DHT22;51321;50.428;8.378;2022-08-23T09:24:19;25.60;65.30
64855;DHT22;51321;50.428;8.378;2022-08-23T09:26:53;25.80;65.50
64855;DHT22;51321;50.428;8.378;2022-08-23T09:29:20;26.00;63.90
64855;DHT22;51321;50.428;8.378;2022-08-23T09:31:44;26.30;63.90
64855;DHT22;51321;50.428;8.378;2022-08-23T09:34:07;26.30;63.60
64855;DHT22;51321;50.428;8.378;2022-08-23T09:36:41;26.60;63.30
64855;DHT22;51321;50.428;8.378;2022-08-23T09:39:06;26.90;62.70
64855;DHT22;51321;50.428;8.378;2022-08-23T09:41:32;27.20;62.50
64855;DHT22;51321;50.428;8.378;2022-08-23T09:43:56;27.00;61.40
64855;DHT22;51321;50.428;8.378;2022-08-23T09:46:26;26.80;62.00
64855;DHT22;51321;50.428;8.378;2022-08-23T09:48:48;26.50;62.30
64855;DHT22;51321;50.428;8.378;2022-08-23T09:51:18;26.70;62.20
64855;DHT22;51321;50.428;8.378;2022-08-23T09:53:46;26.70;61.70
64855;DHT22;51321;50.428;8.378;2022-08-23T09:56:12;26.50;61.60
64855;DHT22;51321;50.428;8.378;2022-08-23T09:58:38;26.60;61.70
64855;DHT22;51321;50.428;8.378;2022-08-23T10:01:08;26.60;61.50
64855;DHT22;51321;50.428;8.378;2022-08-23T10:03:32;26.80;61.60
64855;DHT22;51321;50.428;8.378;2022-08-23T10:06:04;27.10;61.60
64855;DHT22;51321;50.428;8.378;2022-08-23T10:08:31;27.00;60.60
64855;DHT22;51321;50.428;8.378;2022-08-23T10:10:57;26.90;60.40
64855;DHT22;51321;50.428;8.378;2022-08-23T10:13:26;27.00;60.90
64855;DHT22;51321;50.428;8.378;2022-08-23T10:15:56;27.30;60.70
64855;DHT22;51321;50.428;8.378;2022-08-23T10:18:31;27.70;60.10
64855;DHT22;51321;50.428;8.378;2022-08-23T10:21:00;28.10;59.20
64855;DHT22;51321;50.428;8.378;2022-08-23T10:23:31;28.30;58.30
64855;DHT22;51321;50.428;8.378;2022-08-23T10:25:57;28.50;57.90
64855;DHT22;51321;50.428;8.378;2022-08-23T10:28:29;28.50;58.20
64855;DHT22;51321;50.428;8.378;2022-08-23T10:31:25;28.10;57.90
64855;DHT22;51321;50.428;8.378;2022-08-23T10:34:03;28.10;58.30
64855;DHT22;51321;50.428;8.378;2022-08-23T10:36:32;27.90;58.80
64855;DHT22;51321;50.428;8.378;2022-08-23T10:38:57;28.10;58.40
64855;DHT22;51321;50.428;8.378;2022-08-23T10:41:37;28.50;58.10
64855;DHT22;51321;50.428;8.378;2022-08-23T10:44:10;28.90;57.90
64855;DHT22;51321;50.428;8.378;2022-08-23T10:46:42;29.10;56.70
64855;DHT22;51321;50.428;8.378;2022-08-23T10:49:10;29.20;56.80
64855;DHT22;51321;50.428;8.378;2022-08-23T10:51:37;28.80;56.10
64855;DHT22;51321;50.428;8.378;2022-08-23T10:54:03;28.50;57.80
64855;DHT22;51321;50.428;8.378;2022-08-23T10:56:27;28.20;57.20
64855;DHT22;51321;50.428;8.378;2022-08-23T10:58:53;28.00;57.80
64855;DHT22;51321;50.428;8.378;2022-08-23T11:01:20;27.80;57.80
64855;DHT22;51321;50.428;8.378;2022-08-23T11:03:51;27.80;57.60
64855;DHT22;51321;50.428;8.378;2022-08-23T11:06:50;27.80;58.00
64855;DHT22;51321;50.428;8.378;2022-08-23T11:09:37;27.40;58.10
64855;DHT22;51321;50.428;8.378;2022-08-23T11:12:15;27.30;59.50
64855;DHT22;51321;50.428;8.378;2022-08-23T11:14:44;27.30;59.40
64855;DHT22;51321;50.428;8.378;2022-08-23T11:17:22;27.40;58.60
64855;DHT22;51321;50.428;8.378;2022-08-23T11:19:50;27.40;59.70
64855;DHT22;51321;50.428;8.378;2022-08-23T11:22:24;27.40;59.00
64855;DHT22;51321;50.428;8.378;2022-08-23T11:24:53;27.90;58.40
64855;DHT22;51321;50.428;8.378;2022-08-23T11:27:32;28.00;57.50
64855;DHT22;51321;50.428;8.378;2022-08-23T11:29:55;28.30;57.10
64855;DHT22;51321;50.428;8.378;2022-08-23T11:32:34;28.20;56.60
64855;DHT22;51321;50.428;8.378;2022-08-23T11:35:07;28.30;56.60
64855;DHT22;51321;50.428;8.378;2022-08-23T11:37:52;28.70;55.30
64855;DHT22;51321;50.428;8.378;2022-08-23T11:40:55;29.10;54.30
64855;DHT22;51321;50.428;8.378;2022-08-23T11:43:27;28.80;54.80
64855;DHT22;51321;50.428;8.378;2022-08-23T11:45:49;28.40;55.30
64855;DHT22;51321;50.428;8.378;2022-08-23T11:48:17;28.30;55.20
64855;DHT22;51321;50.428;8.378;2022-08-23T11:51:04;28.20;55.30
64855;DHT22;51321;50.428;8.378;2022-08-23T11:56:41;27.80;55.50
64855;DHT22;51321;50.428;8.378;2022-08-23T11:59:23;27.60;55.80
64855;DHT22;51321;50.428;8.378;2022-08-23T12:01:54;27.60;56.20
64855;DHT22;51321;50.428;8.378;2022-08-23T12:04:30;27.50;56.10
64855;DHT22;51321;50.428;8.378;2022-08-23T12:06:55;27.50;55.90
64855;DHT22;51321;50.428;8.378;2022-08-23T12:09:54;27.60;56.70
64855;DHT22;51321;50.428;8.378;2022-08-23T12:12:26;28.00;55.70
64855;DHT22;51321;50.428;8.378;2022-08-23T12:14:51;28.10;54.80
64855;DHT22;51321;50.428;8.378;2022-08-23T12:20:13;28.10;55.70
64855;DHT22;51321;50.428;8.378;2022-08-23T12:22:59;27.80;55.40
64855;DHT22;51321;50.428;8.378;2022-08-23T12:25:22;27.80;56.20
64855;DHT22;51321;50.428;8.378;2022-08-23T12:27:47;28.00;55.40
64855;DHT22;51321;50.428;8.378;2022-08-23T12:30:17;28.60;54.50
64855;DHT22;51321;50.428;8.378;2022-08-23T12:32:46;28.80;54.00
64855;DHT22;51321;50.428;8.378;2022-08-23T12:35:24;28.90;53.90
64855;DHT22;51321;50.428;8.378;2022-08-23T12:37:55;28.80;54.60
64855;DHT22;51321;50.428;8.378;2022-08-23T12:40:28;28.60;54.20
64855;DHT22;51321;50.428;8.378;2022-08-23T12:42:51;28.30;54.50
64855;DHT22;51321;50.428;8.378;2022-08-23T12:45:23;28.10;54.70
64855;DHT22;51321;50.428;8.378;2022-08-23T12:47:56;28.00;55.20
64855;DHT22;51321;50.428;8.378;2022-08-23T12:50:26;28.10;55.10
64855;DHT22;51321;50.428;8.378;2022-08-23T12:52:58;28.20;55.10
64855;DHT22;51321;50.428;8.378;2022-08-23T12:55:20;28.30;55.40
64855;DHT22;51321;50.428;8.378;2022-08-23T12:57:42;28.30;54.90
64855;DHT22;51321;50.428;8.378;2022-08-23T13:00:17;28.20;54.60
64855;DHT22;51321;50.428;8.378;2022-08-23T13:02:42;28.20;54.30
64855;DHT22;51321;50.428;8.378;2022-08-23T13:05:12;28.10;54.20
64855;DHT22;51321;50.428;8.378;2022-08-23T13:07:35;28.00;54.50
64855;DHT22;51321;50.428;8.378;2022-08-23T13:09:59;28.30;53.90
64855;DHT22;51321;50.428;8.378;2022-08-23T13:12:22;28.70;53.60
64855;DHT22;51321;50.428;8.378;2022-08-23T13:14:46;29.20;52.70
64855;DHT22;51321;50.428;8.378;2022-08-23T13:17:14;29.60;52.50
64855;DHT22;51321;50.428;8.378;2022-08-23T13:19:37;30.10;52.20
64855;DHT22;51321;50.428;8.378;2022-08-23T13:22:09;30.60;52.10
64855;DHT22;51321;50.428;8.378;2022-08-23T13:24:35;30.40;50.40
64855;DHT22;51321;50.428;8.378;2022-08-23T13:27:12;30.50;50.50
64855;DHT22;51321;50.428;8.378;2022-08-23T13:29:47;30.60;50.30
64855;DHT22;51321;50.428;8.378;2022-08-23T13:32:24;30.30;50.70
64855;DHT22;51321;50.428;8.378;2022-08-23T13:34:46;30.10;50.30
64855;DHT22;51321;50.428;8.378;2022-08-23T13:37:16;30.20;50.80
64855;DHT22;51321;50.428;8.378;2022-08-23T13:39:44;30.50;49.60
64855;DHT22;51321;50.428;8.378;2022-08-23T13:42:09;30.20;50.10
64855;DHT22;51321;50.428;8.378;2022-08-23T13:44:32;30.60;49.90
64855;DHT22;51321;50.428;8.378;2022-08-23T13:46:55;30.60;49.20
64855;DHT22;51321;50.428;8.378;2022-08-23T13:49:18;30.20;49.40
64855;DHT22;51321;50.428;8.378;2022-08-23T13:51:43;30.30;49.50
64855;DHT22;51321;50.428;8.378;2022-08-23T13:54:22;30.40;49.70
64855;DHT22;51321;50.428;8.378;2022-08-23T13:56:46;30.90;48.40
64855;DHT22;51321;50.428;8.378;2022-08-23T13:59:24;30.60;49.00
64855;DHT22;51321;50.428;8.378;2022-08-23T14:01:46;30.40;48.50
64855;DHT22;51321;50.428;8.378;2022-08-23T14:04:08;30.10;49.30
64855;DHT22;51321;50.428;8.378;2022-08-23T14:06:30;30.10;49.00
64855;DHT22;51321;50.428;8.378;2022-08-23T14:08:51;30.30;48.70
64855;DHT22;51321;50.428;8.378;2022-08-23T14:11:14;30.90;48.20
64855;DHT22;51321;50.428;8.378;2022-08-23T14:13:36;31.00;47.50
64855;DHT22;51321;50.428;8.378;2022-08-23T14:16:04;31.00;47.70
64855;DHT22;51321;50.428;8.378;2022-08-23T14:18:26;30.70;47.00
64855;DHT22;51321;50.428;8.378;2022-08-23T14:20:48;30.50;47.60
64855;DHT22;51321;50.428;8.378;2022-08-23T14:23:10;30.30;47.30
64855;DHT22;51321;50.428;8.378;2022-08-23T14:25:31;30.30;47.30
64855;DHT22;51321;50.428;8.378;2022-08-23T14:27:53;30.50;47.10
64855;DHT22;51321;50.428;8.378;2022-08-23T14:30:24;30.30;47.20
64855;DHT22;51321;50.428;8.378;2022-08-23T14:32:47;30.40;47.60
64855;DHT22;51321;50.428;8.378;2022-08-23T14:35:09;30.40;47.30
64855;DHT22;51321;50.428;8.378;2022-08-23T14:37:31;30.00;47.60
64855;DHT22;51321;50.428;8.378;2022-08-23T14:39:53;30.00;48.20
64855;DHT22;51321;50.428;8.378;2022-08-23T14:42:18;29.80;47.80
64855;DHT22;51321;50.428;8.378;2022-08-23T14:44:41;29.70;48.70
64855;DHT22;51321;50.428;8.378;2022-08-23T14:47:03;29.80;49.10
64855;DHT22;51321;50.428;8.378;2022-08-23T14:49:26;29.70;48.20
64855;DHT22;51321;50.428;8.378;2022-08-23T14:51:49;29.60;48.50
64855;DHT22;51321;50.428;8.378;2022-08-23T14:54:13;29.60;48.90
64855;DHT22;51321;50.428;8.378;2022-08-23T14:56:35;29.80;48.80
64855;DHT22;51321;50.428;8.378;2022-08-23T14:58:57;29.90;48.30
64855;DHT22;51321;50.428;8.378;2022-08-23T15:01:20;29.80;48.30
64855;DHT22;51321;50.428;8.378;2022-08-23T15:03:42;29.70;48.40
64855;DHT22;51321;50.428;8.378;2022-08-23T15:06:06;29.60;49.00
64855;DHT22;51321;50.428;8.378;2022-08-23T15:08:28;29.40;48.90
64855;DHT22;51321;50.428;8.378;2022-08-23T15:10:50;29.20;49.70
64855;DHT22;51321;50.428;8.378;2022-08-23T15:13:14;29.00;49.70
64855;DHT22;51321;50.428;8.378;2022-08-23T15:15:35;29.10;50.10
64855;DHT22;51321;50.428;8.378;2022-08-23T15:17:59;28.90;50.50
64855;DHT22;51321;50.428;8.378;2022-08-23T15:20:23;28.90;50.50
64855;DHT22;51321;50.428;8.378;2022-08-23T15:22:47;29.10;51.00
64855;DHT22;51321;50.428;8.378;2022-08-23T15:25:09;29.10;50.90
64855;DHT22;51321;50.428;8.378;2022-08-23T15:27:31;28.90;50.80
64855;DHT22;51321;50.428;8.378;2022-08-23T15:29:53;28.80;50.70
64855;DHT22;51321;50.428;8.378;2022-08-23T15:32:14;28.70;50.90
64855;DHT22;51321;50.428;8.378;2022-08-23T15:34:36;28.70;50.50